Latest Coastal Weather Observations for McCluer Island

IDD60701

Issued at 5:41 am CST Friday 26 August 2016 (issued every 10 minutes, with the page automatically refreshed every 10 minutes)

About coastal observations | Map of coastal stations | Coastal observations for NT | Marine services | Other Formats
Station Details ID: 014274 Name: MCCLUER ISLAND Lat: -11.05 Lon: 132.98 Height: 1.4 m
Data from the previous 72 hours. | See also: Recent months at McCluer Island
Date/Time
CST
Temp
°C
Wind Pressure Rain since
9am
mm
Weather Cloud Vis
km
Sea
Height
m
Swell
Dir  Spd
kts
Gust
kts
hPa Trend Height
m
Period
s
Dir
26/05:30am 26.5 E 9 11 1012.3 - 0.0 - - - - - - -
26/05:00am 26.7 E 8 9 1012.1 - 0.0 - - - - - - -
26/04:30am 26.5 E 7 8 1012.2 - 0.0 - - - - - - -
26/04:00am 26.7 E 10 11 1012.1 - 0.0 - - - - - - -
26/03:30am 26.5 E 9 10 1012.1 - 0.0 - - - - - - -
26/03:00am 26.9 E 10 12 1012.2 - 0.0 - - - - - - -
26/02:30am 26.9 ESE 8 11 1012.1 - 0.0 - - - - - - -
26/02:00am 26.7 E 7 7 1012.2 - 0.0 - - - - - - -
26/01:30am 26.6 E 5 6 1012.2 - 0.0 - - - - - - -
26/01:00am 26.8 ENE 5 5 1012.1 - 0.0 - - - - - - -
26/12:30am 26.7 N 4 5 1011.9 - 0.0 - - - - - - -
26/12:00am 26.7 NNE 5 6 1011.9 - 0.0 - - - - - - -
 
Date/Time
CST
Temp
°C
Wind Pressure Rain since
9am
mm
Weather Cloud Vis
km
Sea
Height
m
Swell
Dir  Spd
kts
Gust
kts
hPa Trend Height
m
Period
s
Dir
25/11:30pm 26.8 NNE 6 7 1012.0 - 0.0 - - - - - - -
25/11:00pm 26.8 N 8 9 1011.8 - 0.0 - - - - - - -
25/10:30pm 26.8 N 8 9 1011.6 - 0.0 - - - - - - -
25/10:00pm 26.9 N 8 9 1011.3 - 0.0 - - - - - - -
25/09:30pm 26.9 N 7 8 1011.2 - 0.0 - - - - - - -
25/09:00pm 26.8 N 8 9 1010.9 - 0.0 - - - - - - -
25/08:30pm 27.0 N 8 9 1010.6 - 0.0 - - - - - - -
25/08:00pm 26.8 NNE 8 9 1010.2 - 0.0 - - - - - - -
25/07:30pm 26.9 N 8 9 1009.9 - 0.0 - - - - - - -
25/07:00pm 27.0 N 8 9 1009.5 - 0.0 - - - - - - -
25/06:30pm 26.9 NNE 6 7 1009.4 - 0.0 - - - - - - -
25/06:00pm 27.3 N 6 7 1009.2 - 0.0 - - - - - - -
25/05:30pm 27.6 N 6 7 1009.0 - 0.0 - - - - - - -
25/05:00pm 28.0 N 6 7 1008.7 - 0.0 - - - - - - -
25/04:30pm 28.2 NNE 5 6 1008.5 - 0.0 - - - - - - -
25/04:00pm 28.6 N 6 8 1008.6 - 0.0 - - - - - - -
25/03:30pm 28.8 N 6 8 1008.7 - 0.0 - - - - - - -
25/03:00pm 28.8 N 7 8 1008.8 - 0.0 - - - - - - -
25/02:30pm 28.8 N 7 8 1009.1 - 0.0 - - - - - - -
25/02:00pm 28.9 N 7 8 1009.3 - 0.0 - - - - - - -
25/01:30pm 28.8 N 7 8 1009.8 - 0.0 - - - - - - -
25/01:00pm 28.8 N 6 8 1010.1 - 0.0 - - - - - - -
25/12:30pm 29.2 N 6 7 1010.5 - 0.0 - - - - - - -
25/12:00pm 28.3 NNW 6 7 1010.9 - 0.0 - - - - - - -
25/11:30am 28.5 N 7 8 1011.2 - 0.0 - - - - - - -
25/11:00am 28.6 N 6 7 1011.7 - 0.0 - - - - - - -
25/10:30am 28.7 N 6 6 1012.0 - 0.0 - - - - - - -
25/10:00am 28.2 N 7 8 1012.2 - 0.0 - - - - - - -
25/09:30am 28.0 N 6 7 1012.2 - 0.0 - - - - - - -
25/09:00am 27.1 N 7 8 1012.0 - 0.0 - - - - - - -
25/08:30am 27.5 N 7 8 1011.6 - 0.0 - - - - - - -
25/08:00am 26.7 N 6 7 1011.6 - 0.0 - - - - - - -
25/07:30am 26.4 NNE 4 5 1011.2 - 0.0 - - - - - - -
25/07:00am 25.8 N 6 7 1010.7 - 0.0 - - - - - - -
25/06:30am 25.8 NNW 5 6 1010.4 - 0.0 - - - - - - -
25/06:00am 25.9 NNW 6 7 1010.0 - 0.0 - - - - - - -
25/05:30am 25.6 NNW 5 6 1009.8 - 0.0 - - - - - - -
25/05:00am 26.0 W 4 5 1009.6 - 0.0 - - - - - - -
25/04:30am 26.0 WNW 6 7 1009.6 - 0.0 - - - - - - -
25/04:00am 26.0 WNW 5 6 1009.6 - 0.0 - - - - - - -
25/03:30am 26.1 WNW 6 8 1009.7 - 0.0 - - - - - - -
25/03:00am 26.2 WNW 7 8 1009.6 - 0.0 - - - - - - -
25/02:30am 26.2 W 7 8 1009.8 - 0.0 - - - - - - -
25/02:00am 26.2 WNW 7 8 1009.9 - 0.0 - - - - - - -
25/01:30am 26.2 WNW 7 8 1010.2 - 0.0 - - - - - - -
25/01:00am 26.3 WNW 7 8 1010.4 - 0.0 - - - - - - -
25/12:30am 26.3 WNW 8 9 1010.6 - 0.0 - - - - - - -
25/12:00am 26.5 NW 8 9 1010.6 - 0.0 - - - - - - -
 
Date/Time
CST
Temp
°C
Wind Pressure Rain since
9am
mm
Weather Cloud Vis
km
Sea
Height
m
Swell
Dir  Spd
kts
Gust
kts
hPa Trend Height
m
Period
s
Dir
24/11:30pm 26.4 NW 8 9 1010.6 - 0.0 - - - - - - -
24/11:00pm 26.6 NNW 11 12 1010.2 - 0.0 - - - - - - -
24/10:30pm 26.4 NNW 12 13 1010.1 - 0.0 - - - - - - -
24/10:00pm 26.6 NNW 12 13 1010.0 - 0.0 - - - - - - -
24/09:30pm 26.6 NNW 11 13 1010.0 - 0.0 - - - - - - -
24/09:00pm 26.8 N 10 12 1009.9 - 0.0 - - - - - - -
24/08:30pm 26.7 N 10 11 1009.6 - 0.0 - - - - - - -
24/08:00pm 26.5 N 9 11 1009.4 - 0.0 - - - - - - -
24/07:30pm 26.7 N 10 11 1008.8 - 0.0 - - - - - - -
24/07:00pm 26.7 N 9 10 1008.6 - 0.0 - - - - - - -
24/06:30pm 26.7 NNW 8 9 1008.1 - 0.0 - - - - - - -
24/06:00pm 26.9 N 8 9 1008.0 - 0.0 - - - - - - -
24/05:30pm 27.2 N 7 8 1007.8 - 0.0 - - - - - - -
24/05:00pm 27.3 N 7 8 1007.8 - 0.0 - - - - - - -
24/04:30pm 27.5 N 8 9 1007.9 - 0.0 - - - - - - -
24/04:00pm 28.0 N 9 10 1007.8 - 0.0 - - - - - - -
24/03:30pm 27.9 N 8 10 1008.0 - 0.0 - - - - - - -
24/03:00pm 28.4 N 8 9 1008.2 - 0.0 - - - - - - -
24/02:30pm 28.7 N 7 9 1008.4 - 0.0 - - - - - - -
24/02:00pm 28.7 NNW 7 9 1008.8 - 0.0 - - - - - - -
24/01:30pm 29.4 NNW 7 8 1009.1 - 0.0 - - - - - - -
24/01:00pm 30.0 NW 6 8 1009.4 - 0.0 - - - - - - -
24/12:30pm 29.0 NW 6 7 1010.0 - 0.0 - - - - - - -
24/12:00pm 28.9 W 5 6 1010.7 - 0.0 - - - - - - -
24/11:30am 28.6 W 5 6 1011.3 - 0.0 - - - - - - -
24/11:00am 28.7 W 5 6 1011.7 - 0.0 - - - - - - -
24/10:30am 28.2 W 4 5 1012.0 - 0.0 - - - - - - -
24/10:00am 28.1 NW 4 5 1012.2 - 0.0 - - - - - - -
24/09:30am 27.7 W 4 5 1012.5 - 0.0 - - - - - - -
24/09:00am 27.0 W 5 6 1012.4 - 0.0 - - - - - - -
24/08:30am 26.6 W 5 6 1012.2 - 0.0 - - - - - - -
24/08:00am 26.2 W 6 7 1011.8 - 0.0 - - - - - - -
24/07:30am 25.6 N 5 6 1011.5 - 0.0 - - - - - - -
24/07:00am 24.9 NNW 3 4 1011.2 - 0.0 - - - - - - -
24/06:00am 24.9 W 3 4 1010.4 - 0.0 - - - - - - -
24/05:30am 25.0 W 4 5 1010.1 - 0.0 - - - - - - -
24/05:00am 25.2 W 6 7 1010.1 - 0.0 - - - - - - -
24/04:30am 25.2 W 5 7 1009.9 - 0.0 - - - - - - -
24/04:00am 25.1 W 5 6 1009.8 - 0.0 - - - - - - -
24/03:30am 25.2 WNW 5 6 1009.8 - 0.0 - - - - - - -
24/03:00am 25.3 WNW 6 7 1009.7 - 0.0 - - - - - - -
24/02:30am 25.4 WNW 7 8 1009.9 - 0.0 - - - - - - -
24/02:00am 25.5 WNW 7 8 1009.9 - 0.0 - - - - - - -
24/01:30am 25.5 WNW 8 9 1009.9 - 0.0 - - - - - - -
24/01:00am 25.4 NW 7 8 1009.8 - 0.0 - - - - - - -
24/12:30am 25.5 NNW 8 9 1009.8 - 0.0 - - - - - - -
24/12:00am 25.6 NNW 8 10 1009.8 - 0.0 - - - - - - -
 
Date/Time
CST
Temp
°C
Wind Pressure Rain since
9am
mm
Weather Cloud Vis
km
Sea
Height
m
Swell
Dir  Spd
kts
Gust
kts
hPa Trend Height
m
Period
s
Dir
23/11:30pm 25.7 NNW 9 11 1009.8 - 0.0 - - - - - - -
23/11:00pm 26.0 NNW 9 11 1009.9 - 0.0 - - - - - - -
23/10:30pm 25.9 NNW 9 11 1009.8 - 0.0 - - - - - - -
23/10:00pm 26.0 N 8 9 1009.8 - 0.0 - - - - - - -
23/09:30pm 25.8 NNW 9 10 1009.7 - 0.0 - - - - - - -
23/09:00pm 26.0 N 9 11 1009.6 - 0.0 - - - - - - -
23/08:30pm 26.0 N 9 11 1009.4 - 0.0 - - - - - - -
23/08:00pm 26.2 N 9 11 1009.3 - 0.0 - - - - - - -
23/07:30pm 26.2 N 10 11 1009.0 - 0.0 - - - - - - -
23/07:00pm 26.1 N 9 10 1008.6 - 0.0 - - - - - - -
23/06:30pm 26.2 N 10 12 1008.0 - 0.0 - - - - - - -
23/06:00pm 26.6 N 10 11 1007.9 - 0.0 - - - - - - -
23/05:30pm 26.7 N 8 10 1007.7 - 0.0 - - - - - - -
23/05:00pm 27.0 N 6 8 1007.4 - 0.0 - - - - - - -
23/04:30pm 27.7 N 7 9 1007.3 - 0.0 - - - - - - -
23/04:00pm 28.1 N 5 7 1007.4 - 0.0 - - - - - - -
23/03:30pm 27.3 NNE 6 8 1007.3 - 0.0 - - - - - - -
23/03:00pm 27.3 NNE 7 8 1007.5 - 0.0 - - - - - - -
23/02:30pm 27.2 NE 6 8 1007.7 - 0.0 - - - - - - -
23/02:00pm 27.4 NE 7 9 1008.2 - 0.0 - - - - - - -
23/01:30pm 27.7 NE 7 9 1008.8 - 0.0 - - - - - - -
23/01:00pm 27.2 NE 6 7 1009.2 - 0.0 - - - - - - -
23/12:30pm 27.5 NE 6 7 1009.7 - 0.0 - - - - - - -
23/12:00pm 28.0 NE 4 5 1010.2 - 0.0 - - - - - - -
23/11:30am 27.5 NNE 5 6 1010.8 - 0.0 - - - - - - -
23/11:00am 27.4 NNE 5 6 1011.1 - 0.0 - - - - - - -
23/10:30am 27.3 NNE 6 7 1011.3 - 0.0 - - - - - - -
23/10:00am 27.4 NNE 5 7 1011.3 - 0.0 - - - - - - -
23/09:30am 27.2 NE 4 6 1011.4 - 0.0 - - - - - - -
23/09:00am 26.6 NE 5 6 1011.3 - 0.0 - - - - - - -
23/08:30am 26.6 ENE 4 5 1011.2 - 0.0 - - - - - - -
23/08:00am 26.6 E 1 3 1010.9 - 0.0 - - - - - - -
23/07:30am 25.9 E 1 3 1010.6 - 0.0 - - - - - - -
23/07:00am 25.1 ENE 3 4 1010.3 - 0.0 - - - - - - -
23/06:30am 24.9 NNW 4 4 1010.0 - 0.0 - - - - - - -
23/06:00am 25.0 N 5 6 1009.8 - 0.0 - - - - - - -

Other Formats:

Comma delimited format used in spreadsheet applications
http://www.bom.gov.au/fwo/IDD60701/IDD60701.94135.axf

JavaScript Object Notation format (JSON) in row-major order
http://www.bom.gov.au/fwo/IDD60701/IDD60701.94135.json